Time;durP1;ratioP1;P1;durP2;ratioP2;P2;SDS_P1;SDS_P2;PMS_P1;PMS_P2;Temp;Humidity;BMP_temperature;BMP_pressure;BME280_temperature;BME280_humidity;BME280_pressure;Samples;Min_cycle;Max_cycle;Signal;HPM_P1;HPM_P2
2022/04/04 00:00:06;;;;;;;4.60;3.30;;;5.70;99.90;;;;;;4989460;28;20560;-77
2022/04/04 00:02:31;;;;;;;7.57;3.60;;;5.70;99.90;;;;;;4999391;28;20096;-77
2022/04/04 00:04:57;;;;;;;5.38;3.25;;;5.70;99.90;;;;;;5004951;28;20430;-79
2022/04/04 00:07:23;;;;;;;6.57;3.63;;;5.90;99.90;;;;;;4989866;28;20627;-79
2022/04/04 00:09:49;;;;;;;6.70;3.30;;;5.70;99.90;;;;;;4998336;28;20046;-77
2022/04/04 00:12:16;;;;;;;7.28;3.80;;;5.70;99.90;;;;;;4990925;28;20053;-77
2022/04/04 00:14:41;;;;;;;7.30;3.60;;;5.90;99.90;;;;;;4988816;28;20752;-77
2022/04/04 00:17:07;;;;;;;5.15;3.70;;;6.50;99.90;;;;;;5007096;28;20140;-79
2022/04/04 00:19:33;;;;;;;7.82;3.72;;;5.70;99.90;;;;;;5022149;28;20072;-79
2022/04/04 00:21:58;;;;;;;5.50;3.85;;;6.80;99.90;;;;;;5007276;28;20107;-78
2022/04/04 00:24:24;;;;;;;5.47;3.20;;;5.80;99.90;;;;;;4957906;28;20049;-79
2022/04/04 00:26:51;;;;;;;7.35;3.67;;;5.80;99.90;;;;;;4990127;28;20124;-79
2022/04/04 00:29:16;;;;;;;10.50;3.63;;;6.00;99.90;;;;;;5005900;28;20364;-78
2022/04/04 00:31:42;;;;;;;6.43;3.88;;;5.80;99.90;;;;;;4990448;28;20057;-79
2022/04/04 00:34:08;;;;;;;6.20;4.22;;;5.80;99.90;;;;;;5006548;28;20068;-80
2022/04/04 00:36:33;;;;;;;7.82;3.90;;;5.80;99.90;;;;;;4957679;28;20053;-79
2022/04/04 00:38:59;;;;;;;6.78;3.80;;;5.90;99.90;;;;;;4991698;28;20038;-79
2022/04/04 00:41:25;;;;;;;7.20;3.90;;;5.90;99.90;;;;;;5010371;28;20103;-79
2022/04/04 00:43:52;;;;;;;7.65;4.03;;;6.20;99.90;;;;;;4994444;28;20042;-79
2022/04/04 00:46:18;;;;;;;8.23;4.07;;;6.00;99.90;;;;;;4978212;28;20045;-79
2022/04/04 00:48:44;;;;;;;7.65;4.53;;;7.00;99.90;;;;;;5008738;28;20053;-79
2022/04/04 00:51:10;;;;;;;10.43;5.20;;;6.00;99.90;;;;;;5010376;28;20411;-79
2022/04/04 00:53:36;;;;;;;8.35;5.18;;;6.00;99.90;;;;;;4993190;28;20050;-79
2022/04/04 00:56:02;;;;;;;9.90;5.07;;;6.10;99.90;;;;;;5009870;28;20038;-77
2022/04/04 00:58:32;;;;;;;8.63;5.18;;;6.10;99.90;;;;;;4993173;28;20538;-77
2022/04/04 01:00:58;;;;;;;10.98;4.80;;;6.20;99.90;;;;;;4993772;28;20074;-77
2022/04/04 01:03:25;;;;;;;7.60;4.70;;;6.30;99.90;;;;;;4961607;28;20051;-77
2022/04/04 01:05:51;;;;;;;9.15;5.45;;;6.20;99.90;;;;;;5008137;28;20073;-77
2022/04/04 01:08:17;;;;;;;9.95;5.07;;;6.20;99.90;;;;;;4992417;28;20507;-77
2022/04/04 01:10:44;;;;;;;13.30;5.05;;;6.30;99.90;;;;;;5010162;28;20423;-77
2022/04/04 01:13:11;;;;;;;9.73;4.88;;;6.50;99.90;;;;;;5009511;28;20054;-77
2022/04/04 01:15:37;;;;;;;11.23;4.82;;;6.30;99.90;;;;;;4993946;28;20044;-77
2022/04/04 01:18:07;;;;;;;8.15;4.47;;;6.30;99.90;;;;;;4983730;28;20145;-77
2022/04/04 01:20:34;;;;;;;8.75;5.15;;;6.30;99.90;;;;;;5025943;28;20495;-77
2022/04/04 01:23:00;;;;;;;10.23;4.95;;;6.40;99.90;;;;;;4990807;28;20262;-77
2022/04/04 01:25:29;;;;;;;8.40;4.30;;;6.40;99.90;;;;;;5008055;28;20061;-77
2022/04/04 01:27:55;;;;;;;10.32;4.80;;;7.30;99.90;;;;;;5007924;28;20052;-77
2022/04/04 01:30:22;;;;;;;9.43;5.00;;;6.40;99.90;;;;;;5009331;28;20552;-77
2022/04/04 01:32:49;;;;;;;6.97;4.63;;;6.50;99.90;;;;;;5008088;28;20624;-77
2022/04/04 01:35:19;;;;;;;11.27;5.30;;;6.40;99.90;;;;;;4992391;28;20092;-77
2022/04/04 01:37:45;;;;;;;11.90;5.07;;;6.50;99.90;;;;;;5022948;28;20073;-77
2022/04/04 01:40:11;;;;;;;12.15;5.63;;;6.50;99.90;;;;;;5005487;28;20042;-76
2022/04/04 01:42:38;;;;;;;11.23;5.68;;;6.50;99.90;;;;;;4992367;28;20561;-77
2022/04/04 01:45:06;;;;;;;9.45;5.40;;;6.60;99.90;;;;;;4999674;28;20100;-77
2022/04/04 01:47:32;;;;;;;10.73;6.55;;;6.60;99.90;;;;;;4993060;28;20073;-77
2022/04/04 01:49:58;;;;;;;12.38;6.43;;;6.70;99.90;;;;;;4990713;28;20078;-77
2022/04/04 01:52:24;;;;;;;12.15;6.72;;;6.70;99.90;;;;;;5001512;28;20053;-77
2022/04/04 01:54:50;;;;;;;13.52;6.75;;;6.70;99.90;;;;;;4973641;28;20046;-77
2022/04/04 01:57:15;;;;;;;10.18;6.22;;;6.80;99.90;;;;;;5006809;28;20765;-77
2022/04/04 01:59:41;;;;;;;10.55;6.55;;;6.80;99.90;;;;;;5007764;28;20052;-79
2022/04/04 02:02:07;;;;;;;10.20;6.40;;;6.80;99.90;;;;;;4976364;28;20050;-79
2022/04/04 02:04:33;;;;;;;12.18;6.60;;;6.80;99.90;;;;;;4971235;28;20049;-78
2022/04/04 02:06:59;;;;;;;11.38;6.68;;;6.90;99.90;;;;;;4992801;28;20038;-79
2022/04/04 02:09:25;;;;;;;11.55;6.97;;;6.90;99.90;;;;;;5005492;28;20457;-78
2022/04/04 02:11:51;;;;;;;12.07;6.43;;;6.90;99.90;;;;;;5008417;28;20046;-78
2022/04/04 02:14:17;;;;;;;11.25;6.32;;;6.90;99.90;;;;;;4960144;28;20042;-78
2022/04/04 02:16:43;;;;;;;11.48;6.43;;;6.90;99.90;;;;;;4999690;28;20086;-78
2022/04/04 02:19:09;;;;;;;13.98;7.18;;;7.00;99.90;;;;;;5007545;28;20050;-78
2022/04/04 02:21:36;;;;;;;13.15;6.40;;;7.00;99.90;;;;;;4983536;28;20042;-78
2022/04/04 02:24:03;;;;;;;16.60;6.53;;;7.00;99.90;;;;;;5003903;28;20050;-79
2022/04/04 02:26:29;;;;;;;13.25;6.50;;;7.00;99.90;;;;;;5008558;28;20053;-78
2022/04/04 02:28:54;;;;;;;15.73;6.72;;;7.00;99.90;;;;;;4992358;28;20065;-78
2022/04/04 02:31:20;;;;;;;13.65;6.50;;;7.00;99.90;;;;;;4993874;28;20096;-78
2022/04/04 02:33:46;;;;;;;16.95;6.63;;;7.10;99.90;;;;;;5008787;28;20109;-78
2022/04/04 02:36:12;;;;;;;12.82;6.10;;;7.10;99.90;;;;;;4992050;28;20116;-78
2022/04/04 02:38:37;;;;;;;17.10;7.05;;;7.00;99.90;;;;;;4992051;28;20069;-78
2022/04/04 02:41:04;;;;;;;13.70;5.68;;;7.10;99.90;;;;;;5007654;28;20050;-78
2022/04/04 02:43:31;;;;;;;16.20;6.32;;;7.10;99.90;;;;;;4991578;28;20042;-78
2022/04/04 02:45:56;;;;;;;8.27;4.60;;;7.10;99.90;;;;;;4990346;28;20470;-78
2022/04/04 02:48:22;;;;;;;10.13;4.82;;;7.10;99.90;;;;;;5006723;28;20073;-78
2022/04/04 02:50:48;;;;;;;9.25;4.95;;;7.20;99.90;;;;;;5006299;28;20049;-78
2022/04/04 02:53:14;;;;;;;8.05;4.95;;;7.00;99.90;;;;;;5008284;28;20041;-78
2022/04/04 02:58:25;;;;;;;9.05;5.13;;;6.90;99.90;;;;;;4994007;28;20372;-79
2022/04/04 03:00:51;;;;;;;12.63;5.45;;;6.90;99.90;;;;;;4991110;28;20053;-78
2022/04/04 03:03:17;;;;;;;14.30;4.57;;;6.80;99.90;;;;;;4991485;28;20076;-78
2022/04/04 03:05:43;;;;;;;10.93;5.18;;;6.80;99.90;;;;;;5007471;28;20045;-78
2022/04/04 03:08:09;;;;;;;11.80;5.05;;;6.70;99.90;;;;;;5008291;28;20053;-78
2022/04/04 03:10:35;;;;;;;11.82;5.43;;;6.80;99.90;;;;;;5004905;28;20479;-78
2022/04/04 03:13:04;;;;;;;14.75;5.97;;;6.60;99.90;;;;;;5006925;28;20052;-78
2022/04/04 03:15:31;;;;;;;10.85;5.07;;;6.50;99.90;;;;;;4990184;28;20046;-78
2022/04/04 03:17:56;;;;;;;11.63;5.38;;;6.50;99.90;;;;;;4989397;28;20507;-78
2022/04/04 03:20:24;;;;;;;15.13;6.20;;;7.00;99.90;;;;;;5006444;28;20177;-78
2022/04/04 03:22:56;;;;;;;14.45;6.10;;;6.30;99.90;;;;;;5006832;28;20049;-78
2022/04/04 03:25:22;;;;;;;14.82;5.82;;;6.20;99.90;;;;;;5007326;28;20499;-78
2022/04/04 03:27:49;;;;;;;13.55;6.53;;;6.10;99.90;;;;;;5006448;28;20037;-78
2022/04/04 03:30:18;;;;;;;11.35;5.13;;;6.40;99.90;;;;;;4959618;28;20053;-78
2022/04/04 03:32:45;;;;;;;13.40;6.28;;;6.20;99.90;;;;;;5008156;28;20107;-78
2022/04/04 03:35:14;;;;;;;11.98;7.50;;;6.20;99.90;;;;;;5005223;28;20092;-78
2022/04/04 03:37:43;;;;;;;11.68;6.90;;;6.10;99.90;;;;;;4983111;28;20049;-78
2022/04/04 03:40:12;;;;;;;17.15;7.72;;;6.10;99.90;;;;;;4973741;28;20046;-78
2022/04/04 03:42:38;;;;;;;15.43;8.05;;;6.10;99.90;;;;;;4991672;28;20108;-78
2022/04/04 03:45:08;;;;;;;18.45;8.38;;;6.00;99.90;;;;;;4998319;28;20054;-78
2022/04/04 03:47:34;;;;;;;16.35;8.70;;;6.00;99.90;;;;;;4990799;28;20568;-77
2022/04/04 03:50:00;;;;;;;17.25;7.43;;;6.00;99.90;;;;;;5024199;28;20046;-78
2022/04/04 03:52:26;;;;;;;12.57;7.45;;;5.90;99.90;;;;;;4990374;28;20046;-78
2022/04/04 03:54:52;;;;;;;11.98;7.82;;;5.80;99.90;;;;;;5004960;28;20045;-78
2022/04/04 03:57:18;;;;;;;13.55;6.80;;;5.80;99.90;;;;;;4989751;28;20038;-78
2022/04/04 03:59:44;;;;;;;11.48;6.25;;;5.70;99.90;;;;;;4990936;28;20050;-78
2022/04/04 04:02:11;;;;;;;13.18;6.28;;;5.70;99.90;;;;;;5006469;28;20044;-79
2022/04/04 04:04:37;;;;;;;10.10;5.35;;;5.70;99.90;;;;;;5005132;28;20060;-78
2022/04/04 04:07:05;;;;;;;11.35;6.15;;;5.60;99.90;;;;;;4972228;28;20053;-79
2022/04/04 04:09:30;;;;;;;11.40;6.13;;;5.60;99.90;;;;;;5004354;28;20060;-78
2022/04/04 04:11:56;;;;;;;11.02;5.60;;;5.60;99.90;;;;;;4988997;28;20045;-78
2022/04/04 04:14:24;;;;;;;11.15;5.50;;;5.60;99.90;;;;;;4995698;28;20058;-78
2022/04/04 04:16:50;;;;;;;11.10;5.00;;;5.60;99.90;;;;;;4980598;28;20050;-78
2022/04/04 04:22:00;;;;;;;10.73;5.03;;;5.50;99.90;;;;;;5001219;28;20108;-78
2022/04/04 04:24:26;;;;;;;11.95;5.50;;;5.60;99.90;;;;;;4989300;28;20510;-79
2022/04/04 04:26:53;;;;;;;9.80;4.72;;;5.70;99.90;;;;;;4988301;28;20061;-79
2022/04/04 04:29:19;;;;;;;10.27;4.82;;;5.70;99.90;;;;;;5003861;28;20042;-78
2022/04/04 04:31:46;;;;;;;9.00;4.43;;;5.60;99.90;;;;;;5005746;28;20132;-78
2022/04/04 04:34:11;;;;;;;6.68;3.70;;;5.60;99.90;;;;;;4987144;28;20046;-78
2022/04/04 04:36:39;;;;;;;8.57;3.05;;;6.50;99.90;;;;;;5002843;28;20053;-78
2022/04/04 04:39:08;;;;;;;8.65;3.28;;;6.50;99.90;;;;;;4989381;28;20046;-78
2022/04/04 04:41:35;;;;;;;7.80;3.45;;;6.60;99.90;;;;;;5006427;28;20060;-78
2022/04/04 04:44:03;;;;;;;8.15;3.22;;;5.50;99.90;;;;;;5022268;28;20049;-78
2022/04/04 04:46:33;;;;;;;9.77;3.30;;;5.40;99.90;;;;;;5005654;28;20418;-78
2022/04/04 04:48:59;;;;;;;8.80;3.15;;;5.20;99.90;;;;;;4997310;28;20042;-79
2022/04/04 04:51:26;;;;;;;13.30;3.03;;;5.50;99.90;;;;;;4990550;28;20562;-79
2022/04/04 04:53:52;;;;;;;15.98;3.50;;;5.30;99.90;;;;;;4989195;28;20415;-79
2022/04/04 04:56:18;;;;;;;10.35;3.10;;;5.30;99.90;;;;;;5005707;28;20038;-78
2022/04/04 04:58:44;;;;;;;9.88;2.75;;;5.30;99.90;;;;;;4981269;28;20077;-78
2022/04/04 05:01:09;;;;;;;8.25;2.42;;;5.10;99.90;;;;;;4989209;28;20038;-78
2022/04/04 05:03:35;;;;;;;6.28;1.90;;;5.00;99.90;;;;;;4989889;28;20200;-79
2022/04/04 05:06:01;;;;;;;6.43;1.88;;;4.90;99.90;;;;;;4989353;28;20053;-78
2022/04/04 05:08:26;;;;;;;5.80;1.45;;;4.90;99.90;;;;;;4968747;28;20046;-77
2022/04/04 05:10:53;;;;;;;7.22;2.08;;;4.90;99.90;;;;;;5005077;28;20458;-77
2022/04/04 05:13:19;;;;;;;9.32;1.90;;;4.90;99.90;;;;;;4989710;28;20057;-77
2022/04/04 05:15:45;;;;;;;9.60;2.03;;;5.00;99.90;;;;;;4989429;28;20045;-79
2022/04/04 05:18:11;;;;;;;11.40;2.70;;;4.90;99.90;;;;;;4966969;28;20200;-79
2022/04/04 05:20:37;;;;;;;5.90;2.30;;;5.00;99.90;;;;;;4974170;28;20500;-76
2022/04/04 05:23:02;;;;;;;9.20;2.33;;;5.20;99.90;;;;;;4999265;28;20045;-78
2022/04/04 05:25:28;;;;;;;8.40;2.20;;;5.70;99.90;;;;;;4991044;28;20247;-79
2022/04/04 05:27:55;;;;;;;5.28;2.10;;;5.40;99.90;;;;;;4993013;28;20484;-78
2022/04/04 05:30:21;;;;;;;12.15;2.42;;;5.10;99.90;;;;;;4993421;28;20112;-79
2022/04/04 05:32:47;;;;;;;5.15;1.83;;;5.20;99.90;;;;;;5009815;28;20050;-79
2022/04/04 05:35:15;;;;;;;10.05;2.50;;;5.30;99.90;;;;;;5000444;28;20467;-79
2022/04/04 05:37:41;;;;;;;5.97;2.22;;;5.30;99.90;;;;;;4960691;28;20042;-78
2022/04/04 05:40:07;;;;;;;9.15;2.92;;;5.40;99.90;;;;;;4960253;28;20053;-80
2022/04/04 05:42:34;;;;;;;8.93;4.13;;;5.30;99.90;;;;;;5009091;28;20062;-76
2022/04/04 05:45:00;;;;;;;10.52;4.97;;;5.40;99.90;;;;;;5007129;28;20043;-77
2022/04/04 05:47:26;;;;;;;13.23;4.97;;;6.40;99.90;;;;;;5009244;28;20069;-77
2022/04/04 05:49:52;;;;;;;11.40;4.70;;;5.60;99.90;;;;;;4992931;28;20072;-79
2022/04/04 05:52:21;;;;;;;12.77;5.68;;;5.70;99.90;;;;;;4986755;28;20045;-79
2022/04/04 05:55:01;;;;;;;9.65;4.63;;;5.80;99.90;;;;;;5007019;28;20053;-78
2022/04/04 05:57:29;;;;;;;13.85;5.63;;;6.10;99.90;;;;;;5004749;28;20113;-78
2022/04/04 05:59:56;;;;;;;17.83;6.22;;;5.90;99.90;;;;;;5006158;28;20108;-77
2022/04/04 06:02:23;;;;;;;19.92;6.47;;;5.80;99.90;;;;;;5004029;28;20054;-77
2022/04/04 06:04:50;;;;;;;14.57;6.85;;;5.80;99.90;;;;;;4990648;28;20057;-76
2022/04/04 06:07:16;;;;;;;20.98;6.68;;;5.80;99.90;;;;;;5007108;28;20525;-78
2022/04/04 06:09:42;;;;;;;15.43;7.50;;;5.90;99.90;;;;;;5005420;28;20084;-79
2022/04/04 06:12:08;;;;;;;16.65;6.97;;;5.90;99.90;;;;;;4995482;28;20073;-78
2022/04/04 06:14:34;;;;;;;11.93;6.03;;;5.90;99.90;;;;;;5004037;28;20069;-78
2022/04/04 06:17:01;;;;;;;13.00;5.90;;;5.90;99.90;;;;;;4974631;28;20562;-80
2022/04/04 06:19:28;;;;;;;19.75;6.60;;;6.00;99.90;;;;;;4974949;28;20057;-79
2022/04/04 06:21:54;;;;;;;16.50;6.82;;;5.90;99.90;;;;;;4991558;28;20053;-79
2022/04/04 06:24:20;;;;;;;15.80;6.80;;;5.90;99.90;;;;;;5007114;28;20180;-77
2022/04/04 06:26:46;;;;;;;17.00;6.68;;;5.90;99.90;;;;;;4953518;28;20413;-76
2022/04/04 06:29:12;;;;;;;17.42;6.53;;;5.90;99.90;;;;;;5007392;28;20049;-76
2022/04/04 06:31:38;;;;;;;17.50;5.95;;;5.90;99.90;;;;;;4991875;28;20057;-77
2022/04/04 06:34:05;;;;;;;15.40;5.60;;;5.90;99.90;;;;;;5022829;28;20137;-77
2022/04/04 06:36:31;;;;;;;14.93;6.78;;;6.40;99.90;;;;;;5006662;28;20048;-76
2022/04/04 06:38:58;;;;;;;18.00;7.63;;;5.90;99.90;;;;;;4990381;28;20457;-76
2022/04/04 06:41:24;;;;;;;11.40;6.68;;;5.90;99.90;;;;;;5006658;28;20057;-76
2022/04/04 06:43:50;;;;;;;17.77;7.85;;;6.00;99.90;;;;;;5008187;28;20045;-76
2022/04/04 06:46:17;;;;;;;15.00;7.30;;;6.00;99.90;;;;;;5006744;28;20037;-76
2022/04/04 06:48:45;;;;;;;20.15;7.22;;;6.00;99.90;;;;;;4993186;28;20061;-76
2022/04/04 06:51:11;;;;;;;18.88;6.40;;;6.30;99.90;;;;;;4992266;28;20045;-76
2022/04/04 06:53:37;;;;;;;12.35;6.72;;;6.00;99.90;;;;;;5008528;28;20049;-80
2022/04/04 06:56:04;;;;;;;17.67;7.07;;;6.00;99.90;;;;;;5006257;28;20144;-76
2022/04/04 06:58:30;;;;;;;19.88;6.47;;;6.00;99.90;;;;;;5008568;28;20050;-75
2022/04/04 07:00:55;;;;;;;20.65;7.10;;;6.00;99.90;;;;;;4971195;28;20050;-78
2022/04/04 07:03:21;;;;;;;23.95;6.57;;;6.00;99.90;;;;;;4991384;28;20050;-79
2022/04/04 07:05:47;;;;;;;17.45;6.50;;;6.10;99.90;;;;;;4974781;28;20061;-79
2022/04/04 07:08:13;;;;;;;17.02;6.95;;;6.00;99.90;;;;;;4990871;28;20076;-79
2022/04/04 07:10:38;;;;;;;12.13;6.78;;;6.00;99.90;;;;;;5008212;28;20100;-75
2022/04/04 07:13:05;;;;;;;17.15;6.65;;;6.00;99.90;;;;;;4990538;28;20053;-79
2022/04/04 07:15:31;;;;;;;17.85;6.80;;;6.00;99.90;;;;;;4992998;28;20057;-78
2022/04/04 07:17:57;;;;;;;19.55;6.80;;;6.10;99.90;;;;;;4991412;28;20062;-77
2022/04/04 07:20:23;;;;;;;16.42;6.90;;;6.00;99.90;;;;;;4990166;28;20053;-80
2022/04/04 07:22:50;;;;;;;16.25;7.38;;;6.10;99.90;;;;;;4989958;28;20081;-76
2022/04/04 07:25:17;;;;;;;17.88;7.43;;;7.40;99.90;;;;;;4998543;28;20050;-79
2022/04/04 07:27:45;;;;;;;22.50;7.95;;;6.30;99.90;;;;;;4984363;28;20046;-76
2022/04/04 07:30:14;;;;;;;22.27;7.70;;;6.10;99.90;;;;;;5006874;28;20046;-76
2022/04/04 07:32:40;;;;;;;17.98;7.72;;;6.10;99.90;;;;;;5006967;28;20391;-78
2022/04/04 07:35:10;;;;;;;14.63;7.60;;;6.30;99.90;;;;;;5008826;28;20371;-79
2022/04/04 07:37:36;;;;;;;16.45;6.78;;;6.20;99.90;;;;;;4958022;28;20073;-79
2022/04/04 07:40:02;;;;;;;18.50;7.95;;;6.20;99.90;;;;;;5005583;28;20436;-78
2022/04/04 07:42:28;;;;;;;21.45;7.72;;;6.20;99.90;;;;;;5008092;28;20081;-78
2022/04/04 07:44:57;;;;;;;18.40;6.90;;;6.30;99.90;;;;;;4992541;28;20077;-79
2022/04/04 07:47:25;;;;;;;23.33;7.55;;;6.50;99.90;;;;;;4975012;28;20056;-78
2022/04/04 07:49:51;;;;;;;21.08;7.13;;;6.20;99.90;;;;;;4979969;28;20546;-79
2022/04/04 07:52:17;;;;;;;17.83;6.50;;;6.20;99.90;;;;;;4975999;28;20110;-78
2022/04/04 07:54:43;;;;;;;18.65;6.53;;;6.20;99.90;;;;;;5005400;28;20045;-79
2022/04/04 07:57:08;;;;;;;20.58;6.35;;;6.80;99.90;;;;;;4989677;28;20044;-78
2022/04/04 07:59:34;;;;;;;18.63;5.75;;;6.20;99.90;;;;;;4998139;28;20491;-78
2022/04/04 08:02:00;;;;;;;13.48;5.93;;;6.20;99.90;;;;;;5006310;28;20527;-82
2022/04/04 08:04:26;;;;;;;13.93;5.45;;;6.30;99.90;;;;;;4974083;28;20049;-75
2022/04/04 08:06:52;;;;;;;14.65;4.75;;;6.50;99.90;;;;;;4990200;28;20045;-80
2022/04/04 08:09:17;;;;;;;20.88;5.10;;;6.30;99.90;;;;;;5004571;28;20042;-79
2022/04/04 08:11:43;;;;;;;17.95;5.03;;;6.30;99.90;;;;;;4983528;28;20369;-79
2022/04/04 08:14:09;;;;;;;19.13;5.13;;;5.70;99.90;;;;;;4980834;28;20089;-79
2022/04/04 08:16:35;;;;;;;17.67;5.82;;;6.30;99.90;;;;;;4989831;28;20068;-81
2022/04/04 08:19:02;;;;;;;17.02;4.95;;;6.40;99.90;;;;;;5003081;28;20054;-80
2022/04/04 08:21:28;;;;;;;12.70;4.07;;;6.40;99.90;;;;;;4989291;28;20042;-81
2022/04/04 08:23:55;;;;;;;18.38;4.10;;;6.40;99.90;;;;;;4989023;28;20046;-81
2022/04/04 08:26:20;;;;;;;25.98;5.28;;;6.40;99.90;;;;;;4971994;28;20129;-77
2022/04/04 08:28:46;;;;;;;15.23;4.40;;;6.40;99.90;;;;;;4979165;28;20120;-80
2022/04/04 08:31:12;;;;;;;20.75;4.68;;;6.40;99.90;;;;;;4985846;28;20046;-80
2022/04/04 08:33:38;;;;;;;20.10;4.38;;;6.40;99.90;;;;;;4987251;28;20111;-81
2022/04/04 08:36:07;;;;;;;24.20;4.55;;;7.00;99.90;;;;;;4985993;28;20054;-78
2022/04/04 08:38:35;;;;;;;14.55;4.22;;;6.50;99.90;;;;;;4989719;28;20042;-80
2022/04/04 08:41:05;;;;;;;15.32;3.70;;;6.50;99.90;;;;;;4991349;28;20487;-78
2022/04/04 08:43:36;;;;;;;17.15;3.85;;;6.50;99.90;;;;;;5006433;28;20053;-79
2022/04/04 08:46:05;;;;;;;16.88;4.28;;;6.50;99.90;;;;;;5005000;28;20545;-78
2022/04/04 08:48:32;;;;;;;16.48;3.80;;;6.60;99.90;;;;;;4987979;28;20054;-79
2022/04/04 08:50:58;;;;;;;15.18;4.15;;;6.60;99.90;;;;;;4969291;28;20499;-78
2022/04/04 08:53:24;;;;;;;12.88;4.45;;;6.60;99.90;;;;;;4966955;28;20688;-78
2022/04/04 08:55:50;;;;;;;22.02;4.70;;;7.00;99.90;;;;;;4988416;28;20100;-79
2022/04/04 08:58:16;;;;;;;15.52;3.95;;;6.60;99.90;;;;;;4980680;28;20117;-78
2022/04/04 09:00:42;;;;;;;19.20;4.10;;;6.70;99.90;;;;;;4990112;28;20128;-78
2022/04/04 09:03:09;;;;;;;18.70;3.88;;;6.70;99.90;;;;;;4992050;28;20377;-78
2022/04/04 09:05:52;;;;;;;17.98;4.00;;;6.70;99.90;;;;;;5008397;28;20054;-82
2022/04/04 09:08:18;;;;;;;16.60;3.70;;;6.70;99.90;;;;;;4999785;28;20050;-79
2022/04/04 09:10:45;;;;;;;18.73;3.42;;;6.70;99.90;;;;;;5008650;28;20624;-81
2022/04/04 09:13:16;;;;;;;15.88;3.70;;;6.80;99.90;;;;;;5009144;28;20531;-82
2022/04/04 09:16:09;;;;;;;15.40;3.63;;;6.80;99.90;;;;;;5008830;28;20049;-76
2022/04/04 09:18:41;;;;;;;15.70;3.72;;;6.80;99.90;;;;;;4975243;28;20058;-76
2022/04/04 09:21:12;;;;;;;14.15;3.33;;;6.80;99.90;;;;;;5010395;28;20057;-75
2022/04/04 09:23:45;;;;;;;13.10;3.13;;;6.80;99.90;;;;;;4993970;28;20517;-75
2022/04/04 09:26:35;;;;;;;19.05;3.65;;;6.80;99.90;;;;;;5009265;28;20057;-78
2022/04/04 09:29:19;;;;;;;16.67;4.03;;;6.80;99.90;;;;;;5004985;28;20050;-78
2022/04/04 09:32:05;;;;;;;21.13;3.90;;;6.90;99.90;;;;;;5001884;28;20081;-77
2022/04/04 09:34:53;;;;;;;18.73;3.78;;;6.80;99.90;;;;;;5008738;28;20129;-77
2022/04/04 09:37:23;;;;;;;15.07;3.63;;;6.90;99.90;;;;;;5009400;28;20070;-78
2022/04/04 09:40:16;;;;;;;14.43;3.33;;;6.90;99.90;;;;;;5009285;28;20054;-78
2022/04/04 09:42:55;;;;;;;13.02;2.92;;;6.90;99.90;;;;;;4992812;28;20115;-77
2022/04/04 09:45:24;;;;;;;11.35;3.22;;;6.90;99.90;;;;;;5007652;28;20103;-78
2022/04/04 09:47:51;;;;;;;12.80;3.10;;;6.90;99.90;;;;;;5008086;28;20093;-78
2022/04/04 09:50:47;;;;;;;17.17;3.45;;;6.90;99.90;;;;;;4992524;28;20046;-78
2022/04/04 09:53:16;;;;;;;15.15;3.47;;;6.90;99.90;;;;;;5008269;28;20049;-79
2022/04/04 09:55:48;;;;;;;10.32;2.78;;;7.10;99.90;;;;;;5021393;28;20376;-78
2022/04/04 09:58:16;;;;;;;15.38;3.40;;;6.90;99.90;;;;;;5009103;28;20502;-79
2022/04/04 10:00:44;;;;;;;13.23;3.10;;;7.00;99.90;;;;;;5008721;28;20050;-79
2022/04/04 10:03:14;;;;;;;15.05;3.17;;;7.00;99.90;;;;;;5009366;28;20183;-78
2022/04/04 10:06:02;;;;;;;16.55;3.00;;;7.00;99.90;;;;;;4976378;28;20053;-79
2022/04/04 10:08:29;;;;;;;14.60;3.08;;;7.00;99.90;;;;;;4991254;28;20120;-80
2022/04/04 10:10:56;;;;;;;9.75;2.80;;;7.00;99.90;;;;;;5009451;28;20103;-78
2022/04/04 10:13:23;;;;;;;18.02;3.67;;;7.00;99.90;;;;;;5008170;28;20054;-77
2022/04/04 10:15:51;;;;;;;12.13;2.75;;;7.00;99.90;;;;;;4990546;28;20049;-77
2022/04/04 10:18:18;;;;;;;14.50;3.00;;;6.80;99.90;;;;;;4989895;28;20045;-77
2022/04/04 10:20:52;;;;;;;14.52;3.58;;;7.00;99.90;;;;;;5009673;28;20123;-77
2022/04/04 10:23:23;;;;;;;13.20;3.00;;;7.10;99.90;;;;;;5024483;28;20124;-77
2022/04/04 10:25:51;;;;;;;12.88;3.25;;;7.00;99.90;;;;;;5008721;28;20380;-77
2022/04/04 10:28:31;;;;;;;14.60;3.42;;;7.20;99.90;;;;;;5007679;28;20042;-76
2022/04/04 10:30:59;;;;;;;14.45;3.50;;;7.10;99.90;;;;;;4931852;28;20093;-76
2022/04/04 10:33:26;;;;;;;13.93;3.55;;;7.10;99.90;;;;;;4978936;28;20148;-76
2022/04/04 10:36:05;;;;;;;11.43;3.55;;;7.10;99.90;;;;;;4971410;28;20046;-76
2022/04/04 10:38:35;;;;;;;13.07;3.67;;;7.20;99.90;;;;;;4989240;28;20057;-76
2022/04/04 10:41:07;;;;;;;11.70;3.67;;;7.20;99.90;;;;;;5004639;28;20050;-76
2022/04/04 10:43:43;;;;;;;13.32;4.13;;;7.20;99.90;;;;;;4987743;28;20113;-77
2022/04/04 10:46:11;;;;;;;15.32;3.70;;;7.20;99.90;;;;;;4972249;28;20077;-77
2022/04/04 10:48:39;;;;;;;13.52;3.95;;;7.20;99.90;;;;;;4985204;28;20052;-77
2022/04/04 10:51:36;;;;;;;16.25;4.43;;;7.20;99.90;;;;;;4969638;28;20062;-77
2022/04/04 10:54:04;;;;;;;17.38;4.47;;;7.30;99.90;;;;;;4964070;28;20091;-76
2022/04/04 10:56:37;;;;;;;14.60;5.00;;;7.30;99.90;;;;;;4984783;28;20046;-77
2022/04/04 10:59:15;;;;;;;17.48;5.30;;;7.30;99.90;;;;;;4970185;28;20057;-77
2022/04/04 11:01:43;;;;;;;16.33;5.80;;;7.30;99.90;;;;;;4969757;28;20052;-77
2022/04/04 11:04:26;;;;;;;18.60;6.65;;;7.50;99.90;;;;;;4986410;28;20050;-77
2022/04/04 11:09:51;;;;;;;21.55;7.38;;;7.40;99.90;;;;;;4985958;28;20060;-77
2022/04/04 11:12:18;;;;;;;20.73;7.35;;;7.40;99.90;;;;;;4970923;28;20042;-77
2022/04/04 11:14:47;;;;;;;19.15;7.40;;;7.50;99.90;;;;;;4987798;28;20065;-77
2022/04/04 11:17:17;;;;;;;15.77;6.55;;;7.50;99.90;;;;;;4970616;28;20101;-77
2022/04/04 11:19:46;;;;;;;25.08;8.32;;;7.50;99.90;;;;;;4988994;28;20050;-77
2022/04/04 11:22:32;;;;;;;22.45;7.45;;;7.60;99.90;;;;;;4987872;28;20580;-77
2022/04/04 11:25:03;;;;;;;20.37;6.23;;;7.60;99.90;;;;;;4987286;28;20112;-77
2022/04/04 11:27:33;;;;;;;18.48;7.45;;;7.60;99.90;;;;;;4966074;28;20294;-77
2022/04/04 11:30:01;;;;;;;21.05;7.25;;;7.60;99.90;;;;;;4987288;28;20058;-78
2022/04/04 11:32:34;;;;;;;20.40;7.65;;;7.60;99.90;;;;;;4970201;28;20140;-78
2022/04/04 11:35:10;;;;;;;17.63;7.65;;;7.70;99.90;;;;;;4988041;28;20053;-77
2022/04/04 11:37:46;;;;;;;;;;;7.70;99.90;;;;;;4955118;28;20057;-77
2022/04/04 11:40:14;;;;;;;18.30;7.78;;;7.70;99.90;;;;;;4986660;28;20377;-77
2022/04/04 11:42:43;;;;;;;19.48;7.35;;;7.70;99.90;;;;;;4987769;28;20042;-75
2022/04/04 11:45:09;;;;;;;17.90;7.85;;;7.80;99.90;;;;;;4986273;28;20047;-76
2022/04/04 11:47:41;;;;;;;18.88;7.35;;;7.80;99.90;;;;;;4987063;28;20093;-75
2022/04/04 11:50:08;;;;;;;23.48;8.68;;;7.80;99.90;;;;;;4987250;28;20052;-76
2022/04/04 11:52:54;;;;;;;18.98;8.10;;;7.80;99.90;;;;;;4971683;28;20049;-76
2022/04/04 11:55:22;;;;;;;22.02;8.77;;;7.80;99.90;;;;;;4986338;28;20099;-76
2022/04/04 11:57:49;;;;;;;20.17;7.95;;;7.80;99.90;;;;;;4940756;28;20078;-74
2022/04/04 12:00:22;;;;;;;28.45;9.05;;;7.90;99.90;;;;;;4988400;28;20054;-75
2022/04/04 12:02:48;;;;;;;27.80;9.80;;;7.90;99.90;;;;;;4987828;28;20124;-75
2022/04/04 12:05:17;;;;;;;29.70;9.15;;;7.90;99.90;;;;;;4954948;28;20057;-79
2022/04/04 12:07:43;;;;;;;20.20;8.38;;;7.90;99.90;;;;;;4986435;28;20503;-76
2022/04/04 12:10:10;;;;;;;24.23;8.30;;;8.00;99.90;;;;;;4971149;28;20066;-76
2022/04/04 12:12:36;;;;;;;28.80;8.15;;;8.00;99.90;;;;;;4964353;28;20050;-76
2022/04/04 12:15:02;;;;;;;22.90;8.52;;;8.10;99.90;;;;;;4954194;28;20506;-76
2022/04/04 12:17:28;;;;;;;20.60;8.25;;;8.10;99.90;;;;;;4970473;28;20061;-76
2022/04/04 12:19:54;;;;;;;20.98;8.32;;;8.10;99.90;;;;;;4987033;28;20508;-78
2022/04/04 12:25:11;;;;;;;30.60;9.48;;;8.20;99.90;;;;;;4987964;28;20054;-76
2022/04/04 12:27:57;;;;;;;27.67;9.32;;;8.20;99.90;;;;;;4970725;28;20173;-77
2022/04/04 12:30:36;;;;;;;28.42;9.20;;;8.20;99.90;;;;;;4987182;28;20165;-76
2022/04/04 12:33:12;;;;;;;24.23;9.18;;;8.20;99.90;;;;;;4996011;28;20377;-76
2022/04/04 12:35:47;;;;;;;24.77;9.23;;;8.20;99.90;;;;;;4955710;28;20514;-77
2022/04/04 12:38:30;;;;;;;27.58;9.75;;;8.20;99.90;;;;;;4973455;28;20085;-77
2022/04/04 12:41:07;;;;;;;32.85;9.30;;;8.20;99.90;;;;;;4990950;28;20105;-76
2022/04/04 12:43:33;;;;;;;28.95;7.88;;;8.20;99.90;;;;;;4990084;28;20058;-77
2022/04/04 12:45:59;;;;;;;28.67;8.40;;;8.20;99.90;;;;;;4992032;28;20133;-76
2022/04/04 12:48:39;;;;;;;29.35;8.65;;;8.20;99.90;;;;;;4991789;28;20559;-77
2022/04/04 12:51:06;;;;;;;25.00;8.70;;;8.30;99.90;;;;;;4991713;28;20058;-76
2022/04/04 12:53:49;;;;;;;31.10;8.52;;;8.30;99.90;;;;;;4990601;28;20062;-77
2022/04/04 12:56:15;;;;;;;28.25;9.00;;;8.30;99.90;;;;;;4991043;28;20057;-76
2022/04/04 12:58:41;;;;;;;32.50;8.95;;;8.30;99.90;;;;;;4974411;28;20400;-76
2022/04/04 13:01:15;;;;;;;24.52;8.65;;;8.40;99.90;;;;;;4974937;28;20050;-76
2022/04/04 13:03:50;;;;;;;25.05;7.80;;;8.40;99.90;;;;;;4990717;28;20054;-77